Time;durP1;ratioP1;P1;durP2;ratioP2;P2;SDS_P1;SDS_P2;PMS_P1;PMS_P2;Temp;Humidity;BMP_temperature;BMP_pressure;BME280_temperature;BME280_humidity;BME280_pressure;Samples;Min_cycle;Max_cycle;Signal;HPM_P1;HPM_P2
2023/08/08 00:01:52;;;;;;;5.15;2.35;;;;;;;;;;4916172;29;20058;-79
2023/08/08 00:04:17;;;;;;;6.13;2.30;;;;;;;;;;4916000;29;20048;-77
2023/08/08 00:06:43;;;;;;;5.03;2.22;;;;;;;;;;4916331;29;20087;-80
2023/08/08 00:09:08;;;;;;;6.70;2.10;;;;;;;;;;4914909;29;20025;-79
2023/08/08 00:11:34;;;;;;;8.27;2.28;;;;;;;;;;4916250;29;20020;-80
2023/08/08 00:13:59;;;;;;;5.05;2.20;;;;;;;;;;4906770;29;20385;-80
2023/08/08 00:16:24;;;;;;;3.53;2.10;;;;;;;;;;4907329;29;20036;-79
2023/08/08 00:18:53;;;;;;;5.55;2.35;;;;;;;;;;4930777;29;20031;-80
2023/08/08 00:21:18;;;;;;;3.42;2.00;;;;;;;;;;4915660;29;20111;-79
2023/08/08 00:23:44;;;;;;;4.38;2.00;;;;;;;;;;4914071;29;20511;-79
2023/08/08 00:26:09;;;;;;;3.50;1.90;;;;;;;;;;4910669;29;20024;-79
2023/08/08 00:28:34;;;;;;;5.90;2.17;;;;;;;;;;4912590;29;20053;-79
2023/08/08 00:31:00;;;;;;;4.60;1.83;;;;;;;;;;4915501;29;20028;-79
2023/08/08 00:33:25;;;;;;;4.93;1.92;;;;;;;;;;4915015;29;20051;-79
2023/08/08 00:35:50;;;;;;;3.05;1.80;;;;;;;;;;4915282;29;20536;-80
2023/08/08 00:38:18;;;;;;;5.43;2.00;;;;;;;;;;4914404;29;20732;-79
2023/08/08 00:40:43;;;;;;;3.17;1.80;;;;;;;;;;4914826;29;20039;-79
2023/08/08 00:43:08;;;;;;;3.42;1.95;;;;;;;;;;4915259;29;20032;-79
2023/08/08 00:45:34;;;;;;;3.83;2.20;;;;;;;;;;4920920;29;20092;-79
2023/08/08 00:48:00;;;;;;;7.88;2.22;;;;;;;;;;4915022;29;20084;-79
2023/08/08 00:50:25;;;;;;;4.82;1.90;;;;;;;;;;4922732;29;20078;-79
2023/08/08 00:52:51;;;;;;;3.88;2.00;;;;;;;;;;4915162;29;20095;-79
2023/08/08 00:55:19;;;;;;;4.75;1.90;;;;;;;;;;4914428;29;20088;-79
2023/08/08 00:57:45;;;;;;;3.97;1.98;;;;;;;;;;4912890;29;20032;-79
2023/08/08 01:00:11;;;;;;;4.75;2.00;;;;;;;;;;4915048;29;20032;-78
2023/08/08 01:02:37;;;;;;;5.38;2.00;;;;;;;;;;4914378;29;20032;-79
2023/08/08 01:05:04;;;;;;;5.15;1.90;;;;;;;;;;4914621;29;20032;-78
2023/08/08 01:07:53;;;;;;;4.05;1.90;;;;;;;;;;4914730;29;20039;-79
2023/08/08 01:10:25;;;;;;;4.72;2.00;;;;;;;;;;4913834;29;20044;-79
2023/08/08 01:12:54;;;;;;;4.00;1.90;;;;;;;;;;4913638;29;20389;-79
2023/08/08 01:15:21;;;;;;;5.15;1.85;;;;;;;;;;4913223;29;20031;-79
2023/08/08 01:17:47;;;;;;;5.88;2.20;;;;;;;;;;4914570;29;20032;-79
2023/08/08 01:20:16;;;;;;;3.28;2.00;;;;;;;;;;4914180;29;20354;-79
2023/08/08 01:23:10;;;;;;;5.60;2.25;;;;;;;;;;4913233;29;20373;-79
2023/08/08 01:25:37;;;;;;;4.78;2.00;;;;;;;;;;4914649;29;20125;-77
2023/08/08 01:28:03;;;;;;;4.97;2.10;;;;;;;;;;4913881;29;20028;-78
2023/08/08 01:30:28;;;;;;;5.80;2.00;;;;;;;;;;4912352;29;20083;-76
2023/08/08 01:32:54;;;;;;;6.47;2.22;;;;;;;;;;4914445;29;20048;-80
2023/08/08 01:35:20;;;;;;;4.25;2.20;;;;;;;;;;4914532;29;20119;-79
2023/08/08 01:37:58;;;;;;;4.88;2.30;;;;;;;;;;4912663;29;20055;-77
2023/08/08 01:40:25;;;;;;;4.53;1.98;;;;;;;;;;4914266;29;20095;-76
2023/08/08 01:42:50;;;;;;;6.28;2.30;;;;;;;;;;4913522;29;20484;-79
2023/08/08 01:45:19;;;;;;;4.18;2.15;;;;;;;;;;4913765;29;20051;-79
2023/08/08 01:47:52;;;;;;;6.13;2.08;;;;;;;;;;4913889;29;20036;-79
2023/08/08 01:50:17;;;;;;;4.72;2.25;;;;;;;;;;4913938;29;20059;-79
2023/08/08 01:52:43;;;;;;;6.82;2.20;;;;;;;;;;4913854;29;20468;-79
2023/08/08 01:55:09;;;;;;;5.30;2.20;;;;;;;;;;4913964;29;20028;-78
2023/08/08 01:57:34;;;;;;;5.07;2.17;;;;;;;;;;4912972;29;20051;-76
2023/08/08 01:59:59;;;;;;;4.30;2.00;;;;;;;;;;4914142;29;20036;-77
2023/08/08 02:02:25;;;;;;;4.18;2.10;;;;;;;;;;4913953;29;20035;-78
2023/08/08 02:04:50;;;;;;;6.00;2.17;;;;;;;;;;4914081;29;20105;-79
2023/08/08 02:07:16;;;;;;;5.13;2.13;;;;;;;;;;4913929;29;20024;-79
2023/08/08 02:09:41;;;;;;;5.57;2.10;;;;;;;;;;4922897;29;20059;-78
2023/08/08 02:12:07;;;;;;;4.00;2.00;;;;;;;;;;4917512;29;20035;-77
2023/08/08 02:14:32;;;;;;;5.65;2.30;;;;;;;;;;4913116;29;20651;-78
2023/08/08 02:16:58;;;;;;;4.22;2.15;;;;;;;;;;4901309;29;20108;-79
2023/08/08 02:19:23;;;;;;;5.40;2.20;;;;;;;;;;4914120;29;20035;-78
2023/08/08 02:21:48;;;;;;;5.03;2.38;;;;;;;;;;4913844;29;20087;-80
2023/08/08 02:24:14;;;;;;;3.72;2.00;;;;;;;;;;4914144;29;20028;-79
2023/08/08 02:26:39;;;;;;;5.68;2.20;;;;;;;;;;4913658;29;20032;-76
2023/08/08 02:29:05;;;;;;;5.25;2.20;;;;;;;;;;4913443;29;20115;-77
2023/08/08 02:31:30;;;;;;;5.40;2.20;;;;;;;;;;4913868;29;20036;-79
2023/08/08 02:33:55;;;;;;;4.55;2.05;;;;;;;;;;4913478;29;20164;-78
2023/08/08 02:36:21;;;;;;;6.43;2.35;;;;;;;;;;4913550;29;20092;-79
2023/08/08 02:38:46;;;;;;;4.85;2.25;;;;;;;;;;4913129;29;20495;-79
2023/08/08 02:41:11;;;;;;;5.28;2.20;;;;;;;;;;4913128;29;20084;-79
2023/08/08 02:43:37;;;;;;;7.25;2.33;;;;;;;;;;4912705;29;20095;-79
2023/08/08 02:46:02;;;;;;;3.88;2.17;;;;;;;;;;4913081;29;20072;-79
2023/08/08 02:48:29;;;;;;;5.07;2.20;;;;;;;;;;4912953;29;20104;-79
2023/08/08 02:50:55;;;;;;;4.28;2.20;;;;;;;;;;4913028;29;20034;-78
2023/08/08 02:53:20;;;;;;;4.75;2.15;;;;;;;;;;4912814;29;20032;-80
2023/08/08 02:55:46;;;;;;;5.95;2.25;;;;;;;;;;4912616;29;20036;-78
2023/08/08 02:58:12;;;;;;;3.83;2.10;;;;;;;;;;4912805;29;20035;-78
2023/08/08 03:00:37;;;;;;;6.80;2.38;;;;;;;;;;4913078;29;20024;-79
2023/08/08 03:03:03;;;;;;;4.22;2.10;;;;;;;;;;4912082;29;20040;-79
2023/08/08 03:05:28;;;;;;;5.22;2.08;;;;;;;;;;4913225;29;20032;-79
2023/08/08 03:07:53;;;;;;;5.18;2.10;;;;;;;;;;4913032;29;20028;-77
2023/08/08 03:10:19;;;;;;;3.65;2.03;;;;;;;;;;4913046;29;20032;-78
2023/08/08 03:12:44;;;;;;;4.88;2.20;;;;;;;;;;4912456;29;20032;-78
2023/08/08 03:15:10;;;;;;;3.53;1.90;;;;;;;;;;4912443;29;20043;-79
2023/08/08 03:17:36;;;;;;;7.00;2.10;;;;;;;;;;4913157;29;20032;-77
2023/08/08 03:20:02;;;;;;;5.78;2.33;;;;;;;;;;4913248;29;20028;-78
2023/08/08 03:22:28;;;;;;;4.57;2.13;;;;;;;;;;4912736;29;20123;-79
2023/08/08 03:24:53;;;;;;;4.93;2.30;;;;;;;;;;4911950;29;20131;-78
2023/08/08 03:27:18;;;;;;;5.22;2.28;;;;;;;;;;4914366;29;20035;-78
2023/08/08 03:29:44;;;;;;;5.93;2.20;;;;;;;;;;4916542;29;20032;-79
2023/08/08 03:32:09;;;;;;;6.30;2.30;;;;;;;;;;4912721;29;20024;-79
2023/08/08 03:34:34;;;;;;;4.25;1.92;;;;;;;;;;4916674;29;20115;-79
2023/08/08 03:37:00;;;;;;;6.40;2.38;;;;;;;;;;4916618;29;20024;-77
2023/08/08 03:39:26;;;;;;;6.00;2.55;;;;;;;;;;4915874;29;20029;-79
2023/08/08 03:41:51;;;;;;;4.80;2.10;;;;;;;;;;4915993;29;20031;-79
2023/08/08 03:44:17;;;;;;;6.45;2.25;;;;;;;;;;4930895;29;20035;-79
2023/08/08 03:46:42;;;;;;;4.75;2.10;;;;;;;;;;4919404;29;20047;-80
2023/08/08 03:49:07;;;;;;;4.50;2.35;;;;;;;;;;4919863;29;20080;-79
2023/08/08 03:51:33;;;;;;;6.60;2.50;;;;;;;;;;4916584;29;20040;-79
2023/08/08 03:53:58;;;;;;;7.93;2.42;;;;;;;;;;4921004;29;20027;-79
2023/08/08 03:56:23;;;;;;;4.13;2.10;;;;;;;;;;4917208;29;20044;-78
2023/08/08 03:58:49;;;;;;;4.45;2.10;;;;;;;;;;4917655;29;20055;-75
2023/08/08 04:01:14;;;;;;;4.93;2.20;;;;;;;;;;4915488;29;20040;-80
2023/08/08 04:03:39;;;;;;;4.68;2.08;;;;;;;;;;4915697;29;20043;-79
2023/08/08 04:06:05;;;;;;;6.28;2.30;;;;;;;;;;4915992;29;20140;-79
2023/08/08 04:08:30;;;;;;;5.15;2.10;;;;;;;;;;4915763;29;20051;-79
2023/08/08 04:10:56;;;;;;;6.30;2.28;;;;;;;;;;4915486;29;20379;-79
2023/08/08 04:13:21;;;;;;;4.63;2.00;;;;;;;;;;4914545;29;20083;-79
2023/08/08 04:15:46;;;;;;;4.80;2.20;;;;;;;;;;4914775;29;20219;-79
2023/08/08 04:18:12;;;;;;;9.63;2.50;;;;;;;;;;4915873;29;20036;-78
2023/08/08 04:20:37;;;;;;;4.97;2.33;;;;;;;;;;4915002;29;20123;-77
2023/08/08 04:23:03;;;;;;;5.93;2.03;;;;;;;;;;4915343;29;20495;-78
2023/08/08 04:25:28;;;;;;;5.88;2.38;;;;;;;;;;4915361;29;20028;-79
2023/08/08 04:27:53;;;;;;;6.03;2.42;;;;;;;;;;4915499;29;20380;-79
2023/08/08 04:30:19;;;;;;;5.68;2.75;;;;;;;;;;4915070;29;20480;-77
2023/08/08 04:32:45;;;;;;;7.65;2.60;;;;;;;;;;4915142;29;20024;-80
2023/08/08 04:35:10;;;;;;;5.82;2.60;;;;;;;;;;4914858;29;20044;-78
2023/08/08 04:37:36;;;;;;;6.10;2.92;;;;;;;;;;4911482;29;20554;-77
2023/08/08 04:40:02;;;;;;;7.80;2.80;;;;;;;;;;4915163;29;20024;-80
2023/08/08 04:42:27;;;;;;;6.65;2.67;;;;;;;;;;4910363;29;20064;-80
2023/08/08 04:44:52;;;;;;;8.38;2.38;;;;;;;;;;4914942;29;20028;-80
2023/08/08 04:47:18;;;;;;;3.80;2.00;;;;;;;;;;4914898;29;20123;-79
2023/08/08 04:49:43;;;;;;;4.55;2.28;;;;;;;;;;4915365;29;20035;-81
2023/08/08 04:52:11;;;;;;;6.75;2.20;;;;;;;;;;4913831;29;20396;-78
2023/08/08 04:54:36;;;;;;;5.25;2.10;;;;;;;;;;4914737;29;20028;-78
2023/08/08 04:57:02;;;;;;;6.78;2.30;;;;;;;;;;4914644;29;20039;-78
2023/08/08 04:59:27;;;;;;;4.45;2.30;;;;;;;;;;4914651;29;20051;-80
2023/08/08 05:01:53;;;;;;;6.30;2.35;;;;;;;;;;4909949;29;20065;-79
2023/08/08 05:04:18;;;;;;;5.25;2.28;;;;;;;;;;4915055;29;20039;-80
2023/08/08 05:06:43;;;;;;;5.35;2.20;;;;;;;;;;4914251;29;20381;-80
2023/08/08 05:09:09;;;;;;;7.72;2.15;;;;;;;;;;4914794;29;20588;-79
2023/08/08 05:11:35;;;;;;;3.88;2.40;;;;;;;;;;4914821;29;20706;-80
2023/08/08 05:14:00;;;;;;;7.45;2.40;;;;;;;;;;4914459;29;20099;-80
2023/08/08 05:16:26;;;;;;;8.05;2.60;;;;;;;;;;4913851;29;20119;-79
2023/08/08 05:18:51;;;;;;;5.10;2.38;;;;;;;;;;4912924;29;20115;-80
2023/08/08 05:21:16;;;;;;;7.10;2.80;;;;;;;;;;4916167;29;20035;-79
2023/08/08 05:23:42;;;;;;;6.72;2.60;;;;;;;;;;4928147;29;20075;-80
2023/08/08 05:26:07;;;;;;;5.68;2.78;;;;;;;;;;4929199;29;20028;-80
2023/08/08 05:28:32;;;;;;;7.78;2.80;;;;;;;;;;4921101;29;20020;-78
2023/08/08 05:30:59;;;;;;;8.10;3.13;;;;;;;;;;4914941;29;20060;-80
2023/08/08 05:33:24;;;;;;;5.03;2.78;;;;;;;;;;4914699;29;20051;-80
2023/08/08 05:35:49;;;;;;;5.75;2.47;;;;;;;;;;4914422;29;20028;-80
2023/08/08 05:38:15;;;;;;;8.68;3.00;;;;;;;;;;4915226;29;20118;-79
2023/08/08 05:40:41;;;;;;;6.55;2.72;;;;;;;;;;4929137;29;20617;-80
2023/08/08 05:43:08;;;;;;;5.15;2.60;;;;;;;;;;4914810;29;20036;-79
2023/08/08 05:45:33;;;;;;;5.03;2.50;;;;;;;;;;4914081;29;20028;-79
2023/08/08 05:48:00;;;;;;;12.95;2.72;;;;;;;;;;4918614;29;20024;-79
2023/08/08 05:50:27;;;;;;;8.25;2.83;;;;;;;;;;4914265;29;20035;-79
2023/08/08 05:52:52;;;;;;;6.55;2.55;;;;;;;;;;4914909;29;20168;-79
2023/08/08 05:55:18;;;;;;;9.23;2.78;;;;;;;;;;4914349;29;20482;-80
2023/08/08 05:57:43;;;;;;;8.07;2.85;;;;;;;;;;4915792;29;20496;-79
2023/08/08 06:00:11;;;;;;;5.40;2.40;;;;;;;;;;4913997;29;20028;-80
2023/08/08 06:02:37;;;;;;;6.18;2.40;;;;;;;;;;4915327;29;20030;-80
2023/08/08 06:05:03;;;;;;;8.07;2.60;;;;;;;;;;4916365;29;20024;-75
2023/08/08 06:07:28;;;;;;;11.07;2.83;;;;;;;;;;4914330;29;20035;-80
2023/08/08 06:09:54;;;;;;;6.38;2.60;;;;;;;;;;4914011;29;20054;-78
2023/08/08 06:12:19;;;;;;;19.45;3.63;;;;;;;;;;4915797;29;20035;-77
2023/08/08 06:14:44;;;;;;;8.25;2.85;;;;;;;;;;4915803;29;20035;-79
2023/08/08 06:17:10;;;;;;;5.25;2.53;;;;;;;;;;4903765;29;20401;-78
2023/08/08 06:19:35;;;;;;;6.82;2.60;;;;;;;;;;4915850;29;20131;-75
2023/08/08 06:22:03;;;;;;;5.72;2.30;;;;;;;;;;4913423;29;20152;-77
2023/08/08 06:24:29;;;;;;;6.65;3.10;;;;;;;;;;4916834;29;20516;-75
2023/08/08 06:26:54;;;;;;;11.75;3.90;;;;;;;;;;4919350;29;20140;-79
2023/08/08 06:29:20;;;;;;;10.30;3.35;;;;;;;;;;4916267;29;20120;-79
2023/08/08 06:31:45;;;;;;;6.30;2.85;;;;;;;;;;4917534;29;20035;-77
2023/08/08 06:34:10;;;;;;;6.18;2.72;;;;;;;;;;4921009;29;20092;-76
2023/08/08 06:36:36;;;;;;;8.07;2.75;;;;;;;;;;4922216;29;20107;-77
2023/08/08 06:39:01;;;;;;;8.52;2.63;;;;;;;;;;4919356;29;20035;-76
2023/08/08 06:41:26;;;;;;;6.60;2.60;;;;;;;;;;4915456;29;20087;-77
2023/08/08 06:43:52;;;;;;;5.75;2.13;;;;;;;;;;4913373;29;20480;-76
2023/08/08 06:46:20;;;;;;;8.60;2.42;;;;;;;;;;4913580;29;20316;-78
2023/08/08 06:48:46;;;;;;;8.70;2.05;;;;;;;;;;4912082;29;20629;-77
2023/08/08 06:51:12;;;;;;;6.38;2.30;;;;;;;;;;4907324;29;20654;-78
2023/08/08 06:53:37;;;;;;;11.55;2.63;;;;;;;;;;4909162;29;20120;-77
2023/08/08 06:56:03;;;;;;;7.13;2.50;;;;;;;;;;4909725;29;20079;-78
2023/08/08 06:58:28;;;;;;;8.95;2.28;;;;;;;;;;4916403;29;20044;-76
2023/08/08 07:00:53;;;;;;;7.78;2.20;;;;;;;;;;4923414;29;20086;-78
2023/08/08 07:03:19;;;;;;;10.30;2.35;;;;;;;;;;4919798;29;20092;-78
2023/08/08 07:05:44;;;;;;;6.25;2.28;;;;;;;;;;4917284;29;20028;-78
2023/08/08 07:08:09;;;;;;;8.00;2.25;;;;;;;;;;4917551;29;20028;-78
2023/08/08 07:10:35;;;;;;;8.73;2.05;;;;;;;;;;4917231;29;20028;-81
2023/08/08 07:13:01;;;;;;;6.38;2.35;;;;;;;;;;4917320;29;20096;-78
2023/08/08 07:15:27;;;;;;;7.43;2.13;;;;;;;;;;4919471;29;20032;-80
2023/08/08 07:17:53;;;;;;;9.43;2.00;;;;;;;;;;4921162;29;20032;-83
2023/08/08 07:20:19;;;;;;;7.75;2.17;;;;;;;;;;4921150;29;20112;-79
2023/08/08 07:22:44;;;;;;;6.53;1.90;;;;;;;;;;4919570;29;20032;-81
2023/08/08 07:25:11;;;;;;;7.13;2.10;;;;;;;;;;4919661;29;20224;-82
2023/08/08 07:27:36;;;;;;;5.75;1.90;;;;;;;;;;4921589;29;20036;-75
2023/08/08 07:30:02;;;;;;;5.30;1.65;;;;;;;;;;4921305;29;20256;-79
2023/08/08 07:32:28;;;;;;;4.70;1.70;;;;;;;;;;4925895;29;20032;-77
2023/08/08 07:34:53;;;;;;;9.30;2.00;;;;;;;;;;4927403;29;20071;-77
2023/08/08 07:37:18;;;;;;;5.50;2.00;;;;;;;;;;4926694;29;20079;-76
2023/08/08 07:39:44;;;;;;;5.72;1.92;;;;;;;;;;4927770;29;20055;-77
2023/08/08 07:42:09;;;;;;;6.68;1.70;;;;;;;;;;4926933;29;20058;-80
2023/08/08 07:44:37;;;;;;;6.05;2.10;;;;;;;;;;4920773;29;20103;-78
2023/08/08 07:47:03;;;;;;;5.53;1.70;;;;;;;;;;4915922;29;20028;-75
2023/08/08 07:49:29;;;;;;;5.80;1.83;;;;;;;;;;4920483;29;20028;-79
2023/08/08 07:51:55;;;;;;;4.40;1.73;;;;;;;;;;4925735;29;20023;-80
2023/08/08 07:54:20;;;;;;;5.15;1.90;;;;;;;;;;4918848;29;20039;-80
2023/08/08 07:56:45;;;;;;;7.53;1.90;;;;;;;;;;4924111;29;20086;-75
2023/08/08 07:59:11;;;;;;;4.50;2.20;;;;;;;;;;4918342;29;20051;-79
2023/08/08 08:01:36;;;;;;;5.20;1.95;;;;;;;;;;4918620;29;20032;-75
2023/08/08 08:04:02;;;;;;;4.88;1.70;;;;;;;;;;4918866;29;20031;-78
2023/08/08 08:06:28;;;;;;;6.63;1.45;;;;;;;;;;4918350;29;20103;-76
2023/08/08 08:08:53;;;;;;;3.88;1.45;;;;;;;;;;4918491;29;20036;-80
2023/08/08 08:11:19;;;;;;;3.17;1.35;;;;;;;;;;4918368;29;20040;-80
2023/08/08 08:13:44;;;;;;;3.85;1.40;;;;;;;;;;4918638;29;20039;-76
2023/08/08 08:16:10;;;;;;;3.75;1.50;;;;;;;;;;4918758;29;20111;-81
2023/08/08 08:18:35;;;;;;;6.32;1.40;;;;;;;;;;4922811;29;20251;-81
2023/08/08 08:21:01;;;;;;;3.15;1.35;;;;;;;;;;4925818;29;20036;-79
2023/08/08 08:23:26;;;;;;;4.20;1.48;;;;;;;;;;4925974;29;20079;-82
2023/08/08 08:25:52;;;;;;;3.92;1.33;;;;;;;;;;4925440;29;20020;-81
2023/08/08 08:28:17;;;;;;;4.85;1.35;;;;;;;;;;4926041;29;20153;-77
2023/08/08 08:30:43;;;;;;;5.63;1.58;;;;;;;;;;4925076;29;20058;-80
2023/08/08 08:33:08;;;;;;;4.38;1.40;;;;;;;;;;4925821;29;20088;-78
2023/08/08 08:35:37;;;;;;;6.05;1.40;;;;;;;;;;4925711;29;20079;-78
2023/08/08 08:38:03;;;;;;;5.90;1.55;;;;;;;;;;4926079;29;20323;-76
2023/08/08 08:40:33;;;;;;;5.63;1.70;;;;;;;;;;4924762;29;20031;-76
2023/08/08 08:43:01;;;;;;;4.30;1.75;;;;;;;;;;4924434;29;20031;-79
2023/08/08 08:45:29;;;;;;;3.65;1.70;;;;;;;;;;4920274;29;20024;-81
2023/08/08 08:47:56;;;;;;;6.63;1.80;;;;;;;;;;4925833;29;20062;-81
2023/08/08 08:50:27;;;;;;;8.18;1.92;;;;;;;;;;4924207;29;20028;-81
2023/08/08 08:52:55;;;;;;;4.60;1.88;;;;;;;;;;4925810;29;20370;-81
2023/08/08 08:55:21;;;;;;;3.65;1.60;;;;;;;;;;4923885;29;20265;-78
2023/08/08 08:57:49;;;;;;;6.10;2.00;;;;;;;;;;4925355;29;20059;-81
2023/08/08 09:00:15;;;;;;;4.85;1.70;;;;;;;;;;4924844;29;20087;-77
2023/08/08 09:02:41;;;;;;;5.65;1.80;;;;;;;;;;4925313;29;20016;-79
2023/08/08 09:05:07;;;;;;;3.33;1.60;;;;;;;;;;4925755;29;20099;-81
2023/08/08 09:07:33;;;;;;;5.80;1.60;;;;;;;;;;4925049;29;20020;-76
2023/08/08 09:09:58;;;;;;;3.72;1.80;;;;;;;;;;4924862;29;20035;-79
2023/08/08 09:12:24;;;;;;;4.32;1.63;;;;;;;;;;4919784;29;20043;-79
2023/08/08 09:14:56;;;;;;;5.13;2.10;;;;;;;;;;4923431;29;20219;-83
2023/08/08 09:17:21;;;;;;;8.38;1.65;;;;;;;;;;4924848;29;20020;-78
2023/08/08 09:19:47;;;;;;;7.70;1.70;;;;;;;;;;4924888;29;20340;-85
2023/08/08 09:22:13;;;;;;;4.78;1.67;;;;;;;;;;4924442;29;20336;-75
2023/08/08 09:24:42;;;;;;;7.07;1.60;;;;;;;;;;4922326;29;20285;-77
2023/08/08 09:27:09;;;;;;;3.97;1.77;;;;;;;;;;4923414;29;20224;-77
2023/08/08 09:29:35;;;;;;;3.28;1.50;;;;;;;;;;4922063;29;20315;-81
2023/08/08 09:32:03;;;;;;;6.40;1.60;;;;;;;;;;4913600;29;20036;-77
2023/08/08 09:34:29;;;;;;;5.80;1.67;;;;;;;;;;4905366;29;20088;-81
2023/08/08 09:36:54;;;;;;;6.45;1.70;;;;;;;;;;4905594;29;20051;-83
2023/08/08 09:39:20;;;;;;;5.15;1.65;;;;;;;;;;4908186;29;20111;-85
2023/08/08 09:41:47;;;;;;;4.07;1.60;;;;;;;;;;4908415;29;20100;-77
2023/08/08 09:44:12;;;;;;;5.32;2.00;;;;;;;;;;4908232;29;20092;-77
2023/08/08 09:46:39;;;;;;;8.35;1.88;;;;;;;;;;4907198;29;20353;-83
2023/08/08 09:49:05;;;;;;;4.03;1.90;;;;;;;;;;4905338;29;20044;-82
2023/08/08 09:51:30;;;;;;;6.63;1.90;;;;;;;;;;4906463;29;20032;-83
2023/08/08 09:53:59;;;;;;;6.05;2.00;;;;;;;;;;4919142;29;20044;-80
2023/08/08 09:56:25;;;;;;;3.83;1.95;;;;;;;;;;4904041;29;20024;-82
2023/08/08 09:58:52;;;;;;;3.63;1.90;;;;;;;;;;4904668;29;20025;-83
2023/08/08 10:01:19;;;;;;;4.20;1.80;;;;;;;;;;4909482;29;20051;-82
2023/08/08 10:03:45;;;;;;;3.78;1.80;;;;;;;;;;4904553;29;20190;-81
2023/08/08 10:06:11;;;;;;;5.35;1.70;;;;;;;;;;4924497;29;20183;-80
2023/08/08 10:08:36;;;;;;;5.45;1.80;;;;;;;;;;4923435;29;20028;-80
2023/08/08 10:11:02;;;;;;;7.38;2.50;;;;;;;;;;4908615;29;20336;-80
2023/08/08 10:13:28;;;;;;;4.95;2.22;;;;;;;;;;4905153;29;20024;-81
2023/08/08 10:15:54;;;;;;;3.67;1.42;;;;;;;;;;4918806;29;20115;-84
2023/08/08 10:18:24;;;;;;;6.05;1.98;;;;;;;;;;4924583;29;20036;-83
2023/08/08 10:20:50;;;;;;;5.55;1.90;;;;;;;;;;4922107;29;20027;-80
2023/08/08 10:23:17;;;;;;;5.57;2.08;;;;;;;;;;4923971;29;20063;-79
2023/08/08 10:25:48;;;;;;;5.35;1.70;;;;;;;;;;4924200;29;20032;-83
2023/08/08 10:28:15;;;;;;;3.38;1.60;;;;;;;;;;4924418;29;20215;-78
2023/08/08 10:30:55;;;;;;;7.25;2.30;;;;;;;;;;4923730;29;20103;-76
2023/08/08 10:33:25;;;;;;;4.97;1.90;;;;;;;;;;4922362;29;20411;-78
2023/08/08 10:36:02;;;;;;;3.78;1.60;;;;;;;;;;4920013;29;20055;-80
2023/08/08 10:38:42;;;;;;;5.78;2.05;;;;;;;;;;4922941;29;20039;-81
2023/08/08 10:41:10;;;;;;;4.10;1.70;;;;;;;;;;4924020;29;20091;-80
2023/08/08 10:43:36;;;;;;;8.55;1.85;;;;;;;;;;4924174;29;20248;-80
2023/08/08 10:46:02;;;;;;;3.63;1.55;;;;;;;;;;4923028;29;20031;-78
2023/08/08 10:48:27;;;;;;;5.32;1.77;;;;;;;;;;4923260;29;20308;-77
2023/08/08 10:51:00;;;;;;;3.90;1.80;;;;;;;;;;4922006;29;20095;-81
2023/08/08 10:53:27;;;;;;;4.40;1.83;;;;;;;;;;4923916;29;20312;-80
2023/08/08 10:56:03;;;;;;;4.20;1.63;;;;;;;;;;4922997;29;20036;-82
2023/08/08 10:58:46;;;;;;;5.53;1.75;;;;;;;;;;4923736;29;20103;-82
2023/08/08 11:01:12;;;;;;;5.55;1.70;;;;;;;;;;4924447;29;20032;-82
2023/08/08 11:03:41;;;;;;;3.88;1.58;;;;;;;;;;4923275;29;20028;-78
2023/08/08 11:06:08;;;;;;;5.50;1.70;;;;;;;;;;4921655;29;20267;-79
2023/08/08 11:08:35;;;;;;;6.55;2.00;;;;;;;;;;4923768;29;20312;-82
2023/08/08 11:11:02;;;;;;;4.80;1.90;;;;;;;;;;4922225;29;20125;-80
2023/08/08 11:13:27;;;;;;;3.95;1.60;;;;;;;;;;4919527;29;20066;-83
2023/08/08 11:15:52;;;;;;;6.57;1.77;;;;;;;;;;4913452;29;20528;-79
2023/08/08 11:18:18;;;;;;;5.07;1.90;;;;;;;;;;4913213;29;20024;-79
2023/08/08 11:20:43;;;;;;;4.10;1.75;;;;;;;;;;4913118;29;20026;-80
2023/08/08 11:23:10;;;;;;;3.90;1.55;;;;;;;;;;4912873;29;20091;-79
2023/08/08 11:25:39;;;;;;;3.85;1.65;;;;;;;;;;4912708;29;20145;-77
2023/08/08 11:28:04;;;;;;;4.45;1.80;;;;;;;;;;4919542;29;20031;-80
2023/08/08 11:30:33;;;;;;;6.32;1.60;;;;;;;;;;4923741;29;20044;-79
2023/08/08 11:33:00;;;;;;;5.72;1.60;;;;;;;;;;4924152;29;20044;-76
2023/08/08 11:35:27;;;;;;;4.65;1.60;;;;;;;;;;4923876;29;20235;-78
2023/08/08 11:37:53;;;;;;;4.05;1.63;;;;;;;;;;4923773;29;20024;-80
2023/08/08 11:40:19;;;;;;;4.88;1.73;;;;;;;;;;4922190;29;20028;-77
2023/08/08 11:42:46;;;;;;;4.07;1.40;;;;;;;;;;4923940;29;20047;-78
2023/08/08 11:45:12;;;;;;;4.35;1.50;;;;;;;;;;4923994;29;20024;-79
2023/08/08 11:47:39;;;;;;;3.47;1.40;;;;;;;;;;4925944;29;20028;-79
2023/08/08 11:50:06;;;;;;;5.85;1.70;;;;;;;;;;4927308;29;20142;-80
2023/08/08 11:52:32;;;;;;;3.85;1.50;;;;;;;;;;4927359;29;20073;-78
2023/08/08 11:55:00;;;;;;;4.32;1.52;;;;;;;;;;4925920;29;20066;-77
2023/08/08 11:57:26;;;;;;;4.03;1.67;;;;;;;;;;4926998;29;20035;-80
2023/08/08 11:59:53;;;;;;;4.30;1.70;;;;;;;;;;4925802;29;20028;-76
2023/08/08 12:02:18;;;;;;;6.65;1.60;;;;;;;;;;4920567;29;20080;-76
2023/08/08 12:04:46;;;;;;;3.40;1.80;;;;;;;;;;4926144;29;20099;-76
2023/08/08 12:07:12;;;;;;;2.92;1.60;;;;;;;;;;4927163;29;20124;-77
2023/08/08 12:09:38;;;;;;;3.00;1.60;;;;;;;;;;4926964;29;20032;-77
2023/08/08 12:12:04;;;;;;;3.03;1.42;;;;;;;;;;4927101;29;20024;-77
2023/08/08 12:14:29;;;;;;;3.50;1.50;;;;;;;;;;4926976;29;20245;-77
2023/08/08 12:16:55;;;;;;;3.90;1.60;;;;;;;;;;4927336;29;20113;-76
2023/08/08 12:19:25;;;;;;;2.60;1.42;;;;;;;;;;4925934;29;20144;-76
2023/08/08 12:21:51;;;;;;;3.17;1.50;;;;;;;;;;4924655;29;20323;-76
2023/08/08 12:24:18;;;;;;;4.97;1.60;;;;;;;;;;4927140;29;20039;-77
2023/08/08 12:26:43;;;;;;;3.78;1.50;;;;;;;;;;4924048;29;20220;-77
2023/08/08 12:29:08;;;;;;;4.20;1.60;;;;;;;;;;4925021;29;20035;-76
2023/08/08 12:31:34;;;;;;;3.60;1.58;;;;;;;;;;4924772;29;20036;-76
2023/08/08 12:34:00;;;;;;;4.13;1.48;;;;;;;;;;4924008;29;20056;-76
2023/08/08 12:36:26;;;;;;;3.95;1.50;;;;;;;;;;4926662;29;20147;-76
2023/08/08 12:38:51;;;;;;;4.22;1.50;;;;;;;;;;4925693;29;20249;-76
2023/08/08 12:41:16;;;;;;;3.10;1.58;;;;;;;;;;4924952;29;20416;-76
2023/08/08 12:43:42;;;;;;;3.35;1.40;;;;;;;;;;4923587;29;20016;-77
2023/08/08 12:46:07;;;;;;;4.93;1.60;;;;;;;;;;4924620;29;20020;-77
2023/08/08 12:48:32;;;;;;;5.75;1.60;;;;;;;;;;4925034;29;20028;-77
2023/08/08 12:50:58;;;;;;;5.50;1.73;;;;;;;;;;4926171;29;20035;-75
2023/08/08 12:53:23;;;;;;;3.80;1.50;;;;;;;;;;4926525;29;20036;-75
2023/08/08 12:55:49;;;;;;;2.75;1.50;;;;;;;;;;4924822;29;20064;-75
2023/08/08 12:58:14;;;;;;;4.60;1.60;;;;;;;;;;4926006;29;20027;-79
2023/08/08 13:00:39;;;;;;;5.68;1.50;;;;;;;;;;4924353;29;20024;-79
2023/08/08 13:03:05;;;;;;;2.65;1.40;;;;;;;;;;4920292;29;20140;-78
2023/08/08 13:05:30;;;;;;;3.15;1.60;;;;;;;;;;4925665;29;20088;-79
2023/08/08 13:07:55;;;;;;;3.85;1.63;;;;;;;;;;4920833;29;20203;-79
2023/08/08 13:10:21;;;;;;;3.20;1.60;;;;;;;;;;4919508;29;20379;-78
2023/08/08 13:12:47;;;;;;;3.53;1.50;;;;;;;;;;4921592;29;20032;-78
2023/08/08 13:15:13;;;;;;;3.92;1.77;;;;;;;;;;4916487;29;20079;-80
2023/08/08 13:17:39;;;;;;;3.58;1.40;;;;;;;;;;4919975;29;20055;-79
2023/08/08 13:20:04;;;;;;;3.83;1.50;;;;;;;;;;4913391;29;20043;-80
2023/08/08 13:22:30;;;;;;;4.07;1.60;;;;;;;;;;4919665;29;20103;-78
2023/08/08 13:24:55;;;;;;;3.22;1.50;;;;;;;;;;4917641;29;20032;-80
2023/08/08 13:27:21;;;;;;;3.13;1.40;;;;;;;;;;4911080;29;20032;-80
2023/08/08 13:29:46;;;;;;;2.92;1.60;;;;;;;;;;4915569;29;20569;-77
2023/08/08 13:32:11;;;;;;;3.35;1.42;;;;;;;;;;4917459;29;20392;-79
2023/08/08 13:34:37;;;;;;;3.83;1.50;;;;;;;;;;4914077;29;20168;-77
2023/08/08 13:37:03;;;;;;;3.13;1.60;;;;;;;;;;4910370;29;20033;-80
2023/08/08 13:39:28;;;;;;;3.58;1.50;;;;;;;;;;4912787;29;20067;-77
2023/08/08 13:41:53;;;;;;;6.18;1.60;;;;;;;;;;4919680;29;20053;-80
2023/08/08 13:44:19;;;;;;;4.45;1.50;;;;;;;;;;4915929;29;20059;-79
2023/08/08 13:46:44;;;;;;;3.58;1.70;;;;;;;;;;4916608;29;20036;-79
2023/08/08 13:49:10;;;;;;;3.15;1.50;;;;;;;;;;4919298;29;20028;-78
2023/08/08 13:51:35;;;;;;;4.30;1.70;;;;;;;;;;4919748;29;20084;-77
2023/08/08 13:54:01;;;;;;;4.30;1.60;;;;;;;;;;4922387;29;20028;-78
2023/08/08 13:56:26;;;;;;;3.22;1.50;;;;;;;;;;4921007;29;20036;-78
2023/08/08 13:58:51;;;;;;;6.30;1.60;;;;;;;;;;4923736;29;20032;-78
2023/08/08 14:01:17;;;;;;;3.25;1.40;;;;;;;;;;4924670;29;20035;-78
2023/08/08 14:03:42;;;;;;;3.05;1.50;;;;;;;;;;4923133;29;20092;-77
2023/08/08 14:06:08;;;;;;;12.20;1.60;;;;;;;;;;4920656;29;20142;-78
2023/08/08 14:08:33;;;;;;;3.20;1.58;;;;;;;;;;4920760;29;20080;-77
2023/08/08 14:10:59;;;;;;;4.15;1.63;;;;;;;;;;4920414;29;20252;-78
2023/08/08 14:13:24;;;;;;;3.92;1.50;;;;;;;;;;4922725;29;20257;-77
2023/08/08 14:15:51;;;;;;;3.45;1.60;;;;;;;;;;4923656;29;20327;-82
2023/08/08 14:18:16;;;;;;;3.80;1.70;;;;;;;;;;4924215;29;20211;-77
2023/08/08 14:20:42;;;;;;;3.72;1.83;;;;;;;;;;4924277;29;20168;-80
2023/08/08 14:23:07;;;;;;;4.18;1.70;;;;;;;;;;4923285;29;20331;-80
2023/08/08 14:25:33;;;;;;;6.05;1.60;;;;;;;;;;4923981;29;20024;-78
2023/08/08 14:27:59;;;;;;;4.53;1.38;;;;;;;;;;4924283;29;20320;-79
2023/08/08 14:30:27;;;;;;;4.18;1.60;;;;;;;;;;4914511;29;20028;-79
2023/08/08 14:32:53;;;;;;;4.40;1.60;;;;;;;;;;4908092;29;20051;-79
2023/08/08 14:35:19;;;;;;;2.33;1.42;;;;;;;;;;4912308;29;20024;-79
2023/08/08 14:37:44;;;;;;;3.90;1.50;;;;;;;;;;4911008;29;20051;-80